Time;durP1;ratioP1;P1;durP2;ratioP2;P2;SDS_P1;SDS_P2;PMS_P1;PMS_P2;Temp;Humidity;BMP_temperature;BMP_pressure;BME280_temperature;BME280_humidity;BME280_pressure;Samples;Min_cycle;Max_cycle;Signal;HPM_P1;HPM_P2
2024/02/25 00:01:44;;;;;;;4.25;1.05;;;3.80;99.90;;;;;;5047814;28;20032;-64
2024/02/25 00:04:09;;;;;;;3.40;1.10;;;3.80;99.90;;;;;;5053411;28;20112;-64
2024/02/25 00:06:35;;;;;;;4.30;1.38;;;3.90;99.90;;;;;;5053424;28;20024;-64
2024/02/25 00:09:04;;;;;;;2.97;1.15;;;3.90;99.90;;;;;;5044333;28;20033;-65
2024/02/25 00:11:30;;;;;;;3.63;1.23;;;3.90;99.90;;;;;;5058047;28;20454;-64
2024/02/25 00:13:55;;;;;;;5.38;1.58;;;3.90;99.90;;;;;;5042245;28;20049;-63
2024/02/25 00:16:21;;;;;;;3.17;1.30;;;4.00;99.90;;;;;;5044295;28;20021;-64
2024/02/25 00:18:47;;;;;;;2.80;1.02;;;4.00;99.90;;;;;;5051656;28;20028;-64
2024/02/25 00:21:13;;;;;;;4.93;1.30;;;4.10;99.90;;;;;;5048353;28;20029;-63
2024/02/25 00:23:39;;;;;;;3.00;1.17;;;4.10;99.90;;;;;;5047969;28;20044;-64
2024/02/25 00:26:05;;;;;;;4.15;1.27;;;4.20;99.90;;;;;;5046603;28;20075;-64
2024/02/25 00:28:31;;;;;;;6.55;1.50;;;4.20;99.90;;;;;;5044956;28;20053;-64
2024/02/25 00:30:56;;;;;;;3.33;1.40;;;4.30;99.90;;;;;;5052913;28;20380;-64
2024/02/25 00:33:22;;;;;;;4.18;1.25;;;4.30;99.90;;;;;;5052573;28;20780;-64
2024/02/25 00:35:47;;;;;;;4.05;1.52;;;4.40;99.90;;;;;;5053767;28;20068;-63
2024/02/25 00:38:13;;;;;;;2.55;1.30;;;4.40;99.90;;;;;;5051392;28;20460;-64
2024/02/25 00:40:38;;;;;;;4.30;1.40;;;4.40;99.90;;;;;;5049494;28;20856;-64
2024/02/25 00:43:04;;;;;;;2.83;1.13;;;4.40;99.90;;;;;;5044762;28;20018;-64
2024/02/25 00:45:30;;;;;;;7.88;1.23;;;4.40;99.90;;;;;;5044793;28;20064;-64
2024/02/25 00:47:56;;;;;;;3.40;1.50;;;4.40;99.90;;;;;;5050605;28;20029;-64
2024/02/25 00:50:21;;;;;;;4.93;1.63;;;4.40;99.90;;;;;;5045139;28;20027;-64
2024/02/25 00:52:47;;;;;;;4.15;1.55;;;4.40;99.90;;;;;;5050110;28;20032;-65
2024/02/25 00:55:12;;;;;;;4.55;1.50;;;4.40;99.90;;;;;;5043353;28;20060;-64
2024/02/25 00:57:39;;;;;;;5.38;1.35;;;4.30;99.90;;;;;;5050170;28;20032;-64
2024/02/25 01:00:07;;;;;;;5.20;1.40;;;4.30;99.90;;;;;;5046850;28;20457;-62
2024/02/25 01:02:33;;;;;;;3.78;1.30;;;4.30;99.90;;;;;;5051999;28;20415;-62
2024/02/25 01:04:58;;;;;;;3.15;1.33;;;4.20;99.90;;;;;;5042995;28;20036;-62
2024/02/25 01:07:24;;;;;;;3.22;1.10;;;4.20;99.90;;;;;;5041740;28;20400;-62
2024/02/25 01:09:49;;;;;;;5.47;1.45;;;4.30;99.90;;;;;;5055015;28;20036;-63
2024/02/25 01:12:15;;;;;;;3.85;1.30;;;4.30;99.90;;;;;;5049110;28;20020;-62
2024/02/25 01:14:41;;;;;;;4.10;1.25;;;4.40;99.90;;;;;;5048894;28;20488;-62
2024/02/25 01:17:07;;;;;;;4.45;1.38;;;4.50;99.90;;;;;;5041397;28;20431;-63
2024/02/25 01:19:33;;;;;;;4.28;1.30;;;4.60;99.90;;;;;;5045476;28;20067;-62
2024/02/25 01:21:58;;;;;;;3.40;1.27;;;4.70;99.90;;;;;;5042492;28;20434;-63
2024/02/25 01:24:24;;;;;;;3.45;1.30;;;4.70;99.90;;;;;;5044699;28;20056;-62
2024/02/25 01:26:50;;;;;;;2.60;1.17;;;4.60;99.90;;;;;;5051361;28;20035;-63
2024/02/25 01:29:16;;;;;;;3.95;1.27;;;4.70;99.90;;;;;;5046629;28;20028;-62
2024/02/25 01:31:46;;;;;;;3.97;1.30;;;4.60;99.90;;;;;;5045182;28;20029;-62
2024/02/25 01:34:12;;;;;;;3.80;1.30;;;4.60;99.90;;;;;;5055255;28;20036;-63
2024/02/25 01:36:41;;;;;;;3.75;1.25;;;4.60;99.90;;;;;;5045927;28;20041;-63
2024/02/25 01:39:08;;;;;;;2.60;1.10;;;4.60;99.90;;;;;;5050081;28;20039;-63
2024/02/25 01:41:33;;;;;;;3.63;1.30;;;4.70;99.90;;;;;;5056755;28;20040;-63
2024/02/25 01:43:59;;;;;;;2.78;1.10;;;4.70;99.90;;;;;;5047324;28;20056;-63
2024/02/25 01:46:25;;;;;;;3.55;1.40;;;4.60;99.90;;;;;;5050303;28;20024;-63
2024/02/25 01:48:51;;;;;;;2.28;1.05;;;4.70;99.90;;;;;;5051689;28;20028;-63
2024/02/25 01:51:23;;;;;;;5.53;1.17;;;4.70;99.90;;;;;;5041445;28;20040;-63
2024/02/25 01:53:50;;;;;;;3.78;1.30;;;4.80;99.90;;;;;;5044663;28;20036;-63
2024/02/25 01:56:17;;;;;;;5.60;1.30;;;4.90;99.90;;;;;;5049466;28;20036;-63
2024/02/25 01:58:43;;;;;;;2.83;1.10;;;4.90;99.90;;;;;;5055658;28;20071;-63
2024/02/25 02:01:14;;;;;;;3.58;1.25;;;4.90;99.90;;;;;;5055414;28;20028;-63
2024/02/25 02:03:41;;;;;;;2.65;1.10;;;4.90;99.90;;;;;;5055803;28;20054;-63
2024/02/25 02:06:08;;;;;;;4.10;1.30;;;4.80;99.90;;;;;;5055261;28;20036;-64
2024/02/25 02:08:35;;;;;;;3.45;1.33;;;4.80;99.90;;;;;;5058596;28;20057;-62
2024/02/25 02:11:18;;;;;;;8.00;1.25;;;4.90;99.90;;;;;;5053993;28;20032;-63
2024/02/25 02:13:43;;;;;;;3.58;1.20;;;4.90;99.90;;;;;;5051874;28;20041;-63
2024/02/25 02:16:12;;;;;;;3.33;1.27;;;4.90;99.90;;;;;;5049864;28;20359;-63
2024/02/25 02:18:42;;;;;;;3.58;1.20;;;5.00;99.90;;;;;;5050521;28;20111;-63
2024/02/25 02:21:18;;;;;;;2.17;0.95;;;5.00;99.90;;;;;;5057702;28;20027;-63
2024/02/25 02:23:44;;;;;;;2.80;1.00;;;5.00;99.90;;;;;;5054375;28;20759;-63
2024/02/25 02:26:10;;;;;;;3.60;1.15;;;5.00;99.90;;;;;;5055032;28;20485;-63
2024/02/25 02:28:36;;;;;;;3.75;1.20;;;4.90;99.90;;;;;;5051813;28;20035;-63
2024/02/25 02:31:02;;;;;;;2.47;1.40;;;4.90;99.90;;;;;;5053291;28;20017;-62
2024/02/25 02:33:27;;;;;;;4.40;1.40;;;4.90;99.90;;;;;;5057617;28;20028;-63
2024/02/25 02:35:53;;;;;;;3.58;1.20;;;4.90;99.90;;;;;;5050239;28;20079;-64
2024/02/25 02:38:19;;;;;;;2.80;1.35;;;4.90;99.90;;;;;;5036306;28;20033;-63
2024/02/25 02:40:45;;;;;;;5.70;1.55;;;4.90;99.90;;;;;;5043642;28;20465;-63
2024/02/25 02:43:11;;;;;;;4.30;1.50;;;4.90;99.90;;;;;;5041365;28;20017;-62
2024/02/25 02:45:37;;;;;;;2.40;1.08;;;4.80;99.90;;;;;;5044919;28;20025;-63
2024/02/25 02:48:04;;;;;;;4.25;1.40;;;4.90;99.90;;;;;;5037760;28;20032;-63
2024/02/25 02:50:30;;;;;;;3.38;1.17;;;4.90;99.90;;;;;;5045220;28;20096;-63
2024/02/25 02:52:55;;;;;;;4.63;1.40;;;4.80;99.90;;;;;;5040295;28;20025;-62
2024/02/25 02:55:22;;;;;;;5.07;1.35;;;4.70;99.90;;;;;;5045250;28;20036;-63
2024/02/25 02:57:47;;;;;;;3.92;1.38;;;4.70;99.90;;;;;;5041856;28;20052;-63
2024/02/25 03:00:14;;;;;;;4.47;1.52;;;4.70;99.90;;;;;;5042995;28;20017;-64
2024/02/25 03:02:40;;;;;;;4.03;1.45;;;4.70;99.90;;;;;;5041293;28;20025;-64
2024/02/25 03:05:06;;;;;;;3.50;1.50;;;4.70;99.90;;;;;;5046947;28;20051;-63
2024/02/25 03:07:31;;;;;;;3.13;1.25;;;4.70;99.90;;;;;;5040455;28;20030;-64
2024/02/25 03:09:57;;;;;;;4.88;1.30;;;4.60;99.90;;;;;;5043255;28;20031;-63
2024/02/25 03:12:23;;;;;;;5.57;1.60;;;4.60;99.90;;;;;;5041116;28;20104;-63
2024/02/25 03:14:48;;;;;;;3.22;1.30;;;4.50;99.90;;;;;;5043807;28;20082;-63
2024/02/25 03:17:14;;;;;;;3.80;1.40;;;4.60;99.90;;;;;;5039804;28;20071;-63
2024/02/25 03:19:40;;;;;;;3.22;1.30;;;4.40;99.90;;;;;;5042267;28;20032;-63
2024/02/25 03:22:07;;;;;;;3.28;1.27;;;4.40;99.90;;;;;;5041705;28;20372;-63
2024/02/25 03:24:36;;;;;;;5.80;1.55;;;4.40;99.90;;;;;;5036929;28;20037;-64
2024/02/25 03:27:02;;;;;;;4.18;1.40;;;4.30;99.90;;;;;;5039299;28;20083;-63
2024/02/25 03:29:28;;;;;;;4.68;1.70;;;4.20;99.90;;;;;;5043201;28;20541;-63
2024/02/25 03:31:53;;;;;;;4.85;1.58;;;4.20;99.90;;;;;;5040902;28;20025;-63
2024/02/25 03:34:19;;;;;;;6.65;1.70;;;4.10;99.90;;;;;;5045631;28;20095;-64
2024/02/25 03:36:44;;;;;;;4.97;1.27;;;4.10;99.90;;;;;;5044071;28;20409;-63
2024/02/25 03:39:10;;;;;;;4.18;1.40;;;4.10;99.90;;;;;;5045510;28;20060;-63
2024/02/25 03:41:36;;;;;;;4.45;1.55;;;4.00;99.90;;;;;;5041888;28;20469;-63
2024/02/25 03:44:01;;;;;;;3.65;1.30;;;4.00;99.90;;;;;;5044047;28;20021;-63
2024/02/25 03:46:27;;;;;;;4.30;1.42;;;3.90;99.90;;;;;;5047881;28;20045;-63
2024/02/25 03:48:52;;;;;;;4.00;1.50;;;3.90;99.90;;;;;;5043015;28;20029;-63
2024/02/25 03:51:18;;;;;;;5.22;1.80;;;3.90;99.90;;;;;;5039352;28;20057;-63
2024/02/25 03:53:44;;;;;;;6.00;1.75;;;3.90;99.90;;;;;;5041952;28;20453;-63
2024/02/25 03:56:10;;;;;;;3.92;1.33;;;3.90;99.90;;;;;;5050862;28;20035;-64
2024/02/25 03:58:35;;;;;;;3.72;1.40;;;3.90;99.90;;;;;;5046194;28;20063;-63
2024/02/25 04:01:01;;;;;;;5.82;1.70;;;3.90;99.90;;;;;;5041236;28;20049;-63
2024/02/25 04:03:27;;;;;;;3.70;1.45;;;3.90;99.90;;;;;;5045262;28;20036;-62
2024/02/25 04:05:52;;;;;;;3.67;1.52;;;4.00;99.90;;;;;;5039629;28;20029;-62
2024/02/25 04:08:18;;;;;;;4.88;1.85;;;4.10;99.90;;;;;;5037831;28;20030;-62
2024/02/25 04:10:44;;;;;;;5.13;1.30;;;4.10;99.90;;;;;;5040076;28;20041;-62
2024/02/25 04:13:10;;;;;;;4.20;1.70;;;4.10;99.90;;;;;;5039168;28;20049;-63
2024/02/25 04:15:36;;;;;;;5.30;1.85;;;4.10;99.90;;;;;;5042469;28;20029;-63
2024/02/25 04:18:01;;;;;;;6.05;1.50;;;4.00;99.90;;;;;;5040616;28;20060;-63
2024/02/25 04:20:27;;;;;;;6.13;1.55;;;4.10;99.90;;;;;;5040753;28;20025;-62
2024/02/25 04:22:53;;;;;;;3.28;1.35;;;4.10;99.90;;;;;;5041597;28;20025;-63
2024/02/25 04:25:18;;;;;;;5.20;1.60;;;4.00;99.90;;;;;;5042853;28;20029;-63
2024/02/25 04:27:44;;;;;;;4.72;1.73;;;4.10;99.90;;;;;;5039782;28;20041;-63
2024/02/25 04:30:11;;;;;;;4.20;1.60;;;4.10;99.90;;;;;;5042262;28;20032;-63
2024/02/25 04:32:40;;;;;;;4.60;1.30;;;4.10;99.90;;;;;;5040420;28;20036;-63
2024/02/25 04:35:06;;;;;;;3.47;1.45;;;4.10;99.90;;;;;;5044590;28;20475;-63
2024/02/25 04:37:32;;;;;;;4.60;1.70;;;4.10;99.90;;;;;;5039709;28;20024;-63
2024/02/25 04:39:58;;;;;;;5.45;1.70;;;4.20;99.90;;;;;;5040899;28;20030;-64
2024/02/25 04:42:23;;;;;;;3.47;1.33;;;4.20;99.90;;;;;;5044383;28;20400;-63
2024/02/25 04:44:49;;;;;;;4.45;1.52;;;4.20;99.90;;;;;;5042398;28;20052;-62
2024/02/25 04:47:14;;;;;;;4.90;1.58;;;4.20;99.90;;;;;;5042567;28;20485;-62
2024/02/25 04:49:40;;;;;;;3.72;1.58;;;4.20;99.90;;;;;;5041405;28;20045;-63
2024/02/25 04:52:09;;;;;;;4.95;1.63;;;4.30;99.90;;;;;;5041222;28;20035;-63
2024/02/25 04:54:35;;;;;;;2.78;1.25;;;4.30;99.90;;;;;;5038418;28;20087;-63
2024/02/25 04:57:01;;;;;;;6.00;1.52;;;4.30;99.90;;;;;;5041306;28;20409;-62
2024/02/25 04:59:26;;;;;;;4.18;1.48;;;4.20;99.90;;;;;;5040083;28;20032;-62
2024/02/25 05:01:53;;;;;;;4.03;1.40;;;4.30;99.90;;;;;;5040651;28;20021;-62
2024/02/25 05:04:18;;;;;;;4.07;1.48;;;4.30;99.90;;;;;;5046121;28;20107;-63
2024/02/25 05:06:44;;;;;;;4.82;1.40;;;4.40;99.90;;;;;;5037790;28;20101;-63
2024/02/25 05:09:10;;;;;;;2.90;1.02;;;4.40;99.90;;;;;;5041305;28;20037;-63
2024/02/25 05:11:35;;;;;;;3.72;1.27;;;4.50;99.90;;;;;;5038707;28;20025;-63
2024/02/25 05:14:01;;;;;;;3.85;1.30;;;4.50;99.90;;;;;;5040508;28;20049;-63
2024/02/25 05:16:29;;;;;;;4.38;1.63;;;4.60;99.90;;;;;;5041298;28;20051;-63
2024/02/25 05:18:55;;;;;;;4.18;1.50;;;4.60;99.90;;;;;;5040150;28;20026;-63
2024/02/25 05:21:21;;;;;;;4.97;1.50;;;4.60;99.90;;;;;;5038417;28;20022;-63
2024/02/25 05:23:46;;;;;;;5.60;1.63;;;4.60;99.90;;;;;;5039767;28;20032;-64
2024/02/25 05:26:12;;;;;;;3.42;1.27;;;4.60;99.90;;;;;;5037980;28;20088;-63
2024/02/25 05:28:38;;;;;;;3.63;1.10;;;4.60;99.90;;;;;;5038274;28;20108;-63
2024/02/25 05:31:04;;;;;;;3.13;1.27;;;4.60;99.90;;;;;;5044607;28;20503;-63
2024/02/25 05:33:29;;;;;;;2.50;1.05;;;4.70;99.90;;;;;;5044870;28;20040;-63
2024/02/25 05:35:55;;;;;;;4.30;1.45;;;4.70;99.90;;;;;;5043656;28;20017;-64
2024/02/25 05:38:21;;;;;;;6.25;1.40;;;4.70;99.90;;;;;;5043199;28;20060;-64
2024/02/25 05:40:46;;;;;;;3.75;1.40;;;4.70;99.90;;;;;;5045039;28;20029;-63
2024/02/25 05:43:12;;;;;;;4.35;1.45;;;4.70;99.90;;;;;;5044152;28;20112;-64
2024/02/25 05:45:39;;;;;;;4.85;1.20;;;4.60;99.90;;;;;;5042252;28;20021;-63
2024/02/25 05:48:05;;;;;;;3.22;1.10;;;4.60;99.90;;;;;;5044883;28;20467;-64
2024/02/25 05:50:31;;;;;;;4.10;1.45;;;4.50;99.90;;;;;;5042464;28;20112;-63
2024/02/25 05:52:56;;;;;;;4.20;1.48;;;4.50;99.90;;;;;;5040773;28;20128;-63
2024/02/25 05:55:22;;;;;;;3.08;1.20;;;4.50;99.90;;;;;;5043118;28;20120;-64
2024/02/25 05:57:48;;;;;;;4.13;1.40;;;4.50;99.90;;;;;;5042755;28;20095;-63
2024/02/25 06:00:14;;;;;;;3.80;1.40;;;4.40;99.90;;;;;;5043411;28;20056;-64
2024/02/25 06:02:40;;;;;;;4.78;1.58;;;4.40;99.90;;;;;;5045019;28;20460;-63
2024/02/25 06:05:12;;;;;;;4.97;1.60;;;4.40;99.90;;;;;;5041812;28;20045;-64
2024/02/25 06:07:38;;;;;;;5.13;1.70;;;4.30;99.90;;;;;;5041625;28;20076;-64
2024/02/25 06:10:04;;;;;;;4.22;1.48;;;4.40;99.90;;;;;;5041953;28;20453;-64
2024/02/25 06:12:35;;;;;;;4.32;1.38;;;4.40;99.90;;;;;;5043957;28;20086;-63
2024/02/25 06:15:03;;;;;;;3.10;1.30;;;4.40;99.90;;;;;;5042048;28;20056;-63
2024/02/25 06:17:29;;;;;;;4.38;1.50;;;4.40;99.90;;;;;;5043682;28;20511;-64
2024/02/25 06:19:54;;;;;;;4.40;1.50;;;4.40;99.90;;;;;;5042665;28;20060;-63
2024/02/25 06:22:20;;;;;;;3.38;1.33;;;4.30;99.90;;;;;;5041786;28;20060;-63
2024/02/25 06:24:46;;;;;;;4.15;1.35;;;4.40;99.90;;;;;;5043570;28;20037;-63
2024/02/25 06:27:11;;;;;;;5.13;1.80;;;4.40;99.90;;;;;;5040877;28;20105;-63
2024/02/25 06:29:37;;;;;;;6.57;1.73;;;4.30;99.90;;;;;;5041136;28;20043;-63
2024/02/25 06:32:03;;;;;;;3.95;1.50;;;4.30;99.90;;;;;;5044617;28;20407;-63
2024/02/25 06:34:28;;;;;;;4.22;1.45;;;4.30;99.90;;;;;;5043972;28;20040;-63
2024/02/25 06:36:54;;;;;;;3.95;1.38;;;4.40;99.90;;;;;;5040192;28;20038;-64
2024/02/25 06:39:20;;;;;;;4.32;1.55;;;4.40;99.90;;;;;;5039486;28;20452;-63
2024/02/25 06:41:46;;;;;;;4.05;1.50;;;4.30;99.90;;;;;;5037639;28;20100;-63
2024/02/25 06:44:12;;;;;;;3.85;1.40;;;4.40;99.90;;;;;;5038156;28;20028;-63
2024/02/25 06:46:40;;;;;;;5.47;1.58;;;4.40;99.90;;;;;;5036395;28;20029;-63
2024/02/25 06:49:06;;;;;;;3.97;1.55;;;4.40;99.90;;;;;;5040006;28;20021;-63
2024/02/25 06:51:32;;;;;;;6.28;2.03;;;4.40;99.90;;;;;;5038732;28;20619;-63
2024/02/25 06:53:58;;;;;;;4.28;1.52;;;4.50;99.90;;;;;;5039136;28;20041;-63
2024/02/25 06:56:23;;;;;;;5.53;1.85;;;4.50;99.90;;;;;;5035904;28;20040;-63
2024/02/25 06:58:49;;;;;;;7.63;1.70;;;4.50;99.90;;;;;;5036315;28;20430;-63
2024/02/25 07:01:16;;;;;;;5.20;1.70;;;4.50;99.90;;;;;;5035648;28;20040;-63
2024/02/25 07:03:45;;;;;;;5.35;1.85;;;4.50;99.90;;;;;;5044882;28;20682;-63
2024/02/25 07:06:11;;;;;;;4.30;1.60;;;4.50;99.90;;;;;;5040295;28;20434;-64
2024/02/25 07:08:37;;;;;;;4.97;1.65;;;4.60;99.90;;;;;;5043549;28;20087;-63
2024/02/25 07:11:15;;;;;;;5.18;1.90;;;4.60;99.90;;;;;;5040671;28;20401;-63
2024/02/25 07:13:42;;;;;;;3.75;1.50;;;4.70;99.90;;;;;;5040199;28;20128;-63
2024/02/25 07:16:08;;;;;;;6.05;1.88;;;4.70;99.90;;;;;;5052175;28;20029;-63
2024/02/25 07:18:33;;;;;;;5.05;1.83;;;4.80;99.90;;;;;;5043634;28;20079;-64
2024/02/25 07:20:59;;;;;;;5.47;1.63;;;4.90;99.90;;;;;;5034942;28;20021;-63
2024/02/25 07:23:24;;;;;;;4.07;1.70;;;5.00;99.90;;;;;;5041425;28;20040;-63
2024/02/25 07:25:50;;;;;;;7.80;1.85;;;5.00;99.90;;;;;;5037172;28;20480;-63
2024/02/25 07:28:16;;;;;;;7.13;1.85;;;5.10;99.90;;;;;;5040420;28;20048;-64
2024/02/25 07:30:42;;;;;;;6.93;2.00;;;5.10;99.90;;;;;;5034812;28;20048;-63
2024/02/25 07:33:11;;;;;;;3.97;1.80;;;5.20;99.90;;;;;;5035644;28;20503;-63
2024/02/25 07:35:36;;;;;;;5.28;2.00;;;5.20;99.90;;;;;;5043645;28;20029;-63
2024/02/25 07:38:02;;;;;;;4.25;1.60;;;5.20;99.90;;;;;;5035863;28;20091;-62
2024/02/25 07:40:28;;;;;;;5.47;1.75;;;5.40;99.90;;;;;;5040463;28;20033;-63
2024/02/25 07:42:53;;;;;;;5.53;1.88;;;5.30;99.90;;;;;;5034868;28;20029;-63
2024/02/25 07:45:19;;;;;;;5.30;1.80;;;5.40;99.90;;;;;;5043274;28;20028;-63
2024/02/25 07:47:45;;;;;;;6.60;1.70;;;5.40;99.90;;;;;;5044001;28;20024;-63
2024/02/25 07:50:11;;;;;;;5.18;1.90;;;5.40;99.90;;;;;;5045654;28;20029;-62
2024/02/25 07:52:36;;;;;;;4.30;1.60;;;5.50;99.90;;;;;;5041879;28;20041;-62
2024/02/25 07:55:02;;;;;;;5.38;1.83;;;5.50;99.90;;;;;;5045653;28;20040;-62
2024/02/25 07:57:28;;;;;;;4.72;1.77;;;5.40;99.90;;;;;;5046434;28;20116;-63
2024/02/25 07:59:53;;;;;;;4.10;1.58;;;5.50;99.90;;;;;;5043036;28;20381;-63
2024/02/25 08:02:19;;;;;;;5.47;1.92;;;5.50;99.90;;;;;;5043022;28;20036;-62
2024/02/25 08:04:45;;;;;;;5.10;2.35;;;5.50;99.90;;;;;;5051387;28;20016;-62
2024/02/25 08:07:11;;;;;;;5.05;1.70;;;5.50;99.90;;;;;;5044464;28;20024;-63
2024/02/25 08:09:36;;;;;;;4.25;1.50;;;5.60;99.90;;;;;;5043072;28;20033;-62
2024/02/25 08:12:02;;;;;;;7.22;2.05;;;5.60;99.90;;;;;;5039967;28;20033;-62
2024/02/25 08:14:28;;;;;;;4.50;1.77;;;5.60;99.90;;;;;;5043484;28;20048;-62
2024/02/25 08:16:54;;;;;;;5.07;1.80;;;5.70;99.90;;;;;;5039906;28;20044;-63
2024/02/25 08:19:20;;;;;;;3.53;1.30;;;5.70;99.90;;;;;;5046526;28;20021;-63
2024/02/25 08:21:45;;;;;;;4.10;1.55;;;5.80;99.90;;;;;;5043827;28;20466;-63
2024/02/25 08:24:11;;;;;;;4.70;1.77;;;5.80;99.90;;;;;;5035772;28;20536;-62
2024/02/25 08:26:38;;;;;;;6.20;1.38;;;5.90;99.90;;;;;;5040354;28;20167;-62
2024/02/25 08:29:04;;;;;;;4.68;1.58;;;5.90;99.90;;;;;;5041497;28;20074;-62
2024/02/25 08:31:30;;;;;;;4.50;1.55;;;6.00;99.90;;;;;;5047100;28;20519;-62
2024/02/25 08:33:56;;;;;;;3.80;1.48;;;6.10;99.90;;;;;;5045515;28;20025;-63
2024/02/25 08:36:22;;;;;;;2.78;1.30;;;6.10;99.90;;;;;;5039489;28;20055;-62
2024/02/25 08:38:48;;;;;;;4.72;1.35;;;6.20;99.90;;;;;;5046654;28;20025;-63
2024/02/25 08:41:13;;;;;;;2.75;1.10;;;6.20;99.90;;;;;;5042667;28;20017;-62
2024/02/25 08:43:39;;;;;;;4.55;1.40;;;6.30;99.90;;;;;;5038825;28;20365;-62
2024/02/25 08:46:05;;;;;;;3.33;1.20;;;6.30;99.90;;;;;;5043747;28;20025;-62
2024/02/25 08:48:30;;;;;;;3.35;1.30;;;6.40;99.90;;;;;;5046144;28;20029;-62
2024/02/25 08:50:56;;;;;;;3.30;1.15;;;6.30;99.90;;;;;;5039095;28;20043;-62
2024/02/25 08:53:22;;;;;;;4.28;1.23;;;6.30;99.90;;;;;;5040798;28;20029;-62
2024/02/25 08:55:48;;;;;;;3.47;1.25;;;6.30;99.90;;;;;;5046386;28;20032;-62
2024/02/25 08:58:13;;;;;;;3.03;1.20;;;6.30;99.90;;;;;;5039354;28;20080;-62
2024/02/25 09:00:40;;;;;;;4.80;1.38;;;6.40;99.90;;;;;;5041184;28;20024;-63
2024/02/25 09:03:06;;;;;;;1.58;1.00;;;6.50;99.90;;;;;;5044238;28;20017;-63
2024/02/25 09:05:31;;;;;;;1.85;0.98;;;6.60;99.90;;;;;;5042118;28;20084;-63
2024/02/25 09:07:59;;;;;;;3.92;1.13;;;6.70;99.90;;;;;;5035414;28;20071;-62
2024/02/25 09:10:24;;;;;;;3.78;1.10;;;6.70;99.90;;;;;;5043519;28;20021;-62
2024/02/25 09:12:50;;;;;;;2.33;1.10;;;6.80;99.90;;;;;;5046893;28;20056;-62
2024/02/25 09:15:19;;;;;;;1.67;0.90;;;6.80;99.90;;;;;;5042554;28;20460;-62
2024/02/25 09:17:45;;;;;;;1.63;0.93;;;6.80;99.90;;;;;;5044927;28;20089;-62
2024/02/25 09:20:11;;;;;;;3.30;1.00;;;6.80;99.90;;;;;;5045481;28;20459;-62
2024/02/25 09:22:37;;;;;;;2.90;1.17;;;6.80;99.90;;;;;;5046516;28;20098;-62
2024/02/25 09:25:03;;;;;;;2.72;1.10;;;6.70;99.90;;;;;;5041864;28;20452;-62
2024/02/25 09:27:29;;;;;;;3.60;1.20;;;6.70;99.90;;;;;;5039522;28;20862;-62
2024/02/25 09:29:55;;;;;;;2.67;1.23;;;6.70;99.90;;;;;;5048708;28;20025;-62
2024/02/25 09:32:21;;;;;;;2.55;0.93;;;6.70;99.90;;;;;;5036422;28;20120;-62
2024/02/25 09:34:46;;;;;;;3.92;1.30;;;6.80;99.90;;;;;;5039462;28;20116;-62
2024/02/25 09:37:12;;;;;;;2.40;1.00;;;6.90;99.90;;;;;;5038177;28;20108;-63
2024/02/25 09:39:38;;;;;;;4.03;1.23;;;7.00;99.90;;;;;;5043439;28;20388;-62
2024/02/25 09:42:07;;;;;;;3.55;1.10;;;7.00;99.90;;;;;;5040728;28;20064;-62
2024/02/25 09:44:35;;;;;;;1.70;0.90;;;7.10;99.90;;;;;;5039599;28;20013;-62
2024/02/25 09:47:01;;;;;;;2.28;1.00;;;7.20;99.90;;;;;;5043466;28;20025;-62
2024/02/25 09:49:30;;;;;;;2.38;0.90;;;7.40;99.90;;;;;;5038614;28;20492;-62
2024/02/25 09:52:00;;;;;;;1.83;0.93;;;7.50;99.90;;;;;;5038528;28;20067;-62
2024/02/25 09:54:26;;;;;;;1.98;1.00;;;7.60;99.90;;;;;;5038876;28;20041;-62
2024/02/25 09:56:51;;;;;;;2.70;0.93;;;7.60;99.90;;;;;;5038737;28;20036;-61
2024/02/25 09:59:18;;;;;;;2.20;1.02;;;7.80;99.90;;;;;;5032702;28;20032;-62
2024/02/25 10:01:48;;;;;;;3.13;1.08;;;8.10;99.90;;;;;;5042808;28;20384;-62
2024/02/25 10:04:14;;;;;;;3.35;1.40;;;8.10;99.90;;;;;;5039160;28;20680;-61
2024/02/25 10:06:42;;;;;;;2.22;1.00;;;8.10;99.90;;;;;;5037936;28;20048;-61
2024/02/25 10:09:12;;;;;;;4.57;1.15;;;8.20;99.90;;;;;;5044030;28;20100;-62
2024/02/25 10:11:40;;;;;;;3.58;1.20;;;8.30;99.90;;;;;;5032420;28;20025;-62
2024/02/25 10:14:06;;;;;;;2.80;1.20;;;8.30;99.90;;;;;;5035502;28;20078;-62
2024/02/25 10:16:32;;;;;;;2.25;1.00;;;8.30;99.90;;;;;;5044572;28;20611;-62
2024/02/25 10:18:59;;;;;;;2.05;1.00;;;8.20;99.90;;;;;;5043625;28;20426;-62
2024/02/25 10:21:24;;;;;;;4.10;1.30;;;8.20;99.90;;;;;;5039462;28;20049;-62
2024/02/25 10:23:54;;;;;;;2.22;0.90;;;8.20;99.90;;;;;;5051482;28;20041;-62
2024/02/25 10:26:23;;;;;;;2.58;1.00;;;8.20;99.90;;;;;;5041219;28;20056;-62
2024/02/25 10:29:01;;;;;;;4.18;1.02;;;8.30;99.90;;;;;;5046905;28;20037;-62
2024/02/25 10:31:26;;;;;;;1.90;0.80;;;8.30;99.90;;;;;;5037464;28;20064;-63
2024/02/25 10:33:56;;;;;;;2.10;0.90;;;8.40;99.90;;;;;;5049628;28;20052;-62
2024/02/25 10:36:25;;;;;;;;;;;8.50;99.90;;;;;;5043648;28;20428;-62
2024/02/25 10:38:54;;;;;;;2.70;0.90;;;8.70;99.90;;;;;;5047292;28;19913;-62
2024/02/25 10:41:20;;;;;;;3.40;0.98;;;9.00;99.90;;;;;;5044077;28;20021;-62
2024/02/25 10:43:52;;;;;;;1.80;0.90;;;9.10;99.90;;;;;;5047637;28;20108;-63
2024/02/25 10:46:30;;;;;;;3.30;1.00;;;9.20;99.90;;;;;;5043138;28;20381;-62
2024/02/25 10:48:59;;;;;;;2.55;1.00;;;9.10;99.90;;;;;;5047254;28;20029;-62
2024/02/25 10:51:26;;;;;;;3.40;1.40;;;9.40;99.90;;;;;;5045138;28;20056;-62
2024/02/25 10:53:53;;;;;;;1.75;0.80;;;9.60;99.90;;;;;;5033957;28;20048;-62
2024/02/25 10:56:20;;;;;;;2.47;1.00;;;9.90;99.90;;;;;;5041479;28;20636;-62
2024/02/25 10:58:52;;;;;;;7.28;1.25;;;10.00;99.90;;;;;;5052288;28;20025;-61
2024/02/25 11:01:19;;;;;;;3.88;1.00;;;10.20;99.90;;;;;;5054443;28;20105;-61
2024/02/25 11:03:46;;;;;;;1.17;0.80;;;10.50;99.90;;;;;;5058233;28;20657;-62
2024/02/25 11:06:29;;;;;;;1.70;0.90;;;10.70;99.90;;;;;;5049554;28;20028;-62
2024/02/25 11:09:09;;;;;;;3.40;1.00;;;10.60;99.90;;;;;;5054615;28;20036;-63
2024/02/25 11:11:35;;;;;;;;;;;10.60;99.90;;;;;;5052271;28;20051;-62
2024/02/25 11:14:00;;;;;;;2.15;0.90;;;10.60;99.90;;;;;;5049088;28;19917;-63
2024/02/25 11:16:30;;;;;;;3.25;1.10;;;10.50;99.90;;;;;;5057007;28;20056;-63
2024/02/25 11:19:01;;;;;;;2.30;0.90;;;10.60;99.90;;;;;;5048254;28;20036;-63
2024/02/25 11:21:28;;;;;;;3.50;0.90;;;10.80;99.90;;;;;;5058082;28;20526;-63
2024/02/25 11:23:54;;;;;;;2.67;0.90;;;11.10;99.90;;;;;;5054097;28;20029;-62
2024/02/25 11:26:35;;;;;;;1.65;0.80;;;11.10;99.90;;;;;;5049281;28;20032;-62
2024/02/25 11:29:24;;;;;;;2.00;0.90;;;10.50;99.90;;;;;;5054502;28;20483;-62
2024/02/25 11:31:50;;;;;;;3.60;1.10;;;10.10;99.90;;;;;;5045110;28;20362;-63
2024/02/25 11:34:24;;;;;;;3.28;1.08;;;9.90;99.90;;;;;;5055923;28;20077;-63
2024/02/25 11:36:51;;;;;;;3.08;1.10;;;9.60;99.90;;;;;;5054339;28;20681;-63
2024/02/25 11:39:22;;;;;;;2.38;0.98;;;9.50;99.90;;;;;;5047181;28;20025;-63
2024/02/25 11:41:49;;;;;;;1.95;0.90;;;9.40;99.90;;;;;;5042390;28;20487;-63
2024/02/25 11:44:15;;;;;;;3.90;1.20;;;9.30;99.90;;;;;;5063919;28;20583;-63
2024/02/25 11:46:42;;;;;;;3.35;1.02;;;9.30;99.90;;;;;;5054405;28;20048;-63
2024/02/25 11:49:08;;;;;;;3.42;1.00;;;9.20;99.90;;;;;;5053682;28;20100;-63
2024/02/25 11:51:34;;;;;;;2.92;1.08;;;9.10;99.90;;;;;;5045532;28;20129;-63
2024/02/25 11:53:59;;;;;;;2.65;1.00;;;9.20;99.90;;;;;;5046869;28;20159;-63
2024/02/25 11:56:26;;;;;;;4.45;1.00;;;9.20;99.90;;;;;;5049429;28;20021;-62
2024/02/25 11:58:52;;;;;;;2.92;1.10;;;9.20;99.90;;;;;;5047065;28;20061;-63
2024/02/25 12:01:18;;;;;;;3.65;1.30;;;9.10;99.90;;;;;;5064608;28;20510;-63
2024/02/25 12:03:43;;;;;;;4.90;1.00;;;9.10;99.90;;;;;;5048732;28;20021;-62
2024/02/25 12:06:09;;;;;;;4.35;1.20;;;9.10;99.90;;;;;;5050239;28;20017;-63
2024/02/25 12:08:35;;;;;;;2.65;1.02;;;9.10;99.90;;;;;;5047638;28;20086;-63
2024/02/25 12:11:02;;;;;;;1.67;0.90;;;9.30;99.90;;;;;;5047594;28;20031;-62
2024/02/25 12:13:28;;;;;;;3.80;1.30;;;9.50;99.90;;;;;;5046311;28;20052;-62
2024/02/25 12:15:54;;;;;;;2.45;1.00;;;9.80;99.90;;;;;;5049995;28;20024;-63
2024/02/25 12:18:20;;;;;;;4.28;1.20;;;10.40;99.90;;;;;;5048980;28;20040;-63
2024/02/25 12:20:46;;;;;;;3.80;1.08;;;11.00;99.90;;;;;;5044581;28;20070;-62
2024/02/25 12:23:13;;;;;;;2.17;0.98;;;11.00;99.90;;;;;;5047592;28;20021;-62
2024/02/25 12:25:39;;;;;;;3.33;1.15;;;10.80;99.90;;;;;;5045681;28;20045;-62
2024/02/25 12:28:13;;;;;;;2.22;0.88;;;10.60;99.90;;;;;;5044956;28;20079;-62
2024/02/25 12:30:43;;;;;;;2.13;0.80;;;10.40;99.90;;;;;;5038404;28;20544;-62
2024/02/25 12:33:09;;;;;;;4.65;0.90;;;10.10;99.90;;;;;;5044477;28;20766;-62
2024/02/25 12:35:37;;;;;;;2.05;0.90;;;9.90;99.90;;;;;;5045753;28;20043;-62
2024/02/25 12:38:03;;;;;;;2.53;1.00;;;9.60;99.90;;;;;;5044858;28;20090;-62
2024/02/25 12:40:31;;;;;;;1.95;1.00;;;9.40;99.90;;;;;;5038748;28;20541;-62
2024/02/25 12:42:59;;;;;;;5.32;1.00;;;9.40;99.90;;;;;;5048557;28;20052;-63
2024/02/25 12:45:26;;;;;;;2.72;0.90;;;9.40;99.90;;;;;;5054412;28;20035;-62
2024/02/25 12:47:52;;;;;;;2.00;0.90;;;9.50;99.90;;;;;;5047005;28;20025;-62
2024/02/25 12:50:18;;;;;;;2.58;0.95;;;9.50;99.90;;;;;;5050398;28;20553;-62
2024/02/25 12:52:44;;;;;;;7.55;1.30;;;9.70;99.90;;;;;;5038392;28;20025;-63
2024/02/25 12:55:10;;;;;;;3.05;1.00;;;9.70;99.90;;;;;;5045899;28;20043;-62